SBCY/CGB METAR and TAF weather

Enter ICAO airport designator
Station Type Date Time Source
SBCY METAR 2021/07/30 23:00 UTC NOAA

SBCY 302300Z 11005KT CAVOK 22/01 Q1019


Station Type Date Time Source
SBCY Decoded METAR 2021/07/30 23:00 UTC NOAA

Cuiaba Aeroporto , Brazil (SBCY) 15-39S 056-06W 182M
Jul 30, 2021 - 07:00 PM EDT / 2021.07.30 2300 UTC
Wind: from the ESE (110 degrees) at 6 MPH (5 KT):0
Visibility: greater than 7 mile(s):0
Temperature: 71 F (22 C)
Dew Point: 33 F (1 C)
Relative Humidity: 24%
Pressure (altimeter): 30.09 in. Hg (1019 hPa)
ob: SBCY 302300Z 11005KT CAVOK 22/01 Q1019
cycle: 23

Station Type Date Time Source
SBCY TAF 2021/07/30 18:48 UTC NOAA

TAF TAF SBCY 301546Z 3018/3118 16010KT CAVOK TN13/3110Z TX31/3118Z
BECMG 3018/3020 14006KT
BECMG 3100/3102 12006KT
BECMG 3112/3114 18006KT
RMK PGW

Example: see airport list